KMAF

Midland International Air and Space Port Airport

Midland, Texas, USA
KMAF 181730Z 1818/1918 25026G36KT 6SM BLDU SCT200 FM182000 27030G40KT 6SM BLDU SCT200 TEMPO 1820/1824 3SM BLDU FM190100 31024G34KT P6SM SCT200 FM190600 34020G28KT P6SM BKN100 FM191200 34013KT P6SM BKN100
Issued Valid From Valid To
Jan-18 @ 17:30 UTC
(3 hours ago)
Jan-18 @ 18:00 UTC
(2 hours ago)
Jan-19 @ 18:00 UTC
(in 22 hours)
Expired Click to View Jan-18 @ 18:00 to Jan-18 @ 20:00
KMAF 181730Z 1818/1918 25026G36KT 6SM BLDU SCT200
Wind Visibility Clouds Conditions
250° at 26 knots
 Gusting to 36 knots
6 miles
  • Scattered at 20,000' AGL
  • Blowing
  • Dust
Temporary Jan-18 @ 20:00 to Jan-19 @ 00:00
TEMPO 1820/1824 3SM BLDU
Visibility Conditions
3 miles
  • Blowing
  • Dust
From Jan-18 @ 20:00 to Jan-19 @ 01:00
FM182000 27030G40KT 6SM BLDU SCT200
Wind Visibility Clouds Conditions
270° at 30 knots
 Gusting to 40 knots
6 miles
  • Scattered at 20,000' AGL
  • Blowing
  • Dust
From Jan-19 @ 01:00 to Jan-19 @ 06:00
FM190100 31024G34KT P6SM SCT200
Wind Visibility Clouds
310° at 24 knots
 Gusting to 34 knots
Greater than 6 miles
  • Scattered at 20,000' AGL
From Jan-19 @ 06:00 to Jan-19 @ 12:00
FM190600 34020G28KT P6SM BKN100
Wind Visibility Clouds
340° at 20 knots
 Gusting to 28 knots
Greater than 6 miles
  • Broken at 10,000' AGL
From Jan-19 @ 12:00 to Jan-19 @ 18:00
FM191200 34013KT P6SM BKN100
Wind Visibility Clouds
340° at 13 knots Greater than 6 miles
  • Broken at 10,000' AGL
KMAF 181730Z 1818/1918 25026G36KT 6SM BLDU SCT200 FM182000 27030G40KT 6SM BLDU SCT200 TEMPO 1820/1824 3SM BLDU FM190100 31024G34KT P6SM SCT200 FM190600 34020G28KT P6SM BKN100 FM191200 34013KT P6SM BKN100
Issued Jan-18 @ 17:30 UTC
(3 hours ago)
Valid From Jan-18 @ 18:00 UTC
(2 hours ago)
Valid To Jan-19 @ 18:00 UTC
(in 22 hours)
Jan-18 @ 18:00 - Jan-18 @ 20:00
Wind Visibility
250° at 26 knots
 Gusting to 36 knots
6 miles
Clouds
  • Scattered at 20,000' AGL
Conditions
  • Blowing
  • Dust
Temporary Jan-18 @ 20:00 - Jan-19 @ 00:00
Conditions
  • Blowing
  • Dust
From Jan-18 @ 20:00 - Jan-19 @ 01:00
Wind Visibility
270° at 30 knots
 Gusting to 40 knots
6 miles
Clouds
  • Scattered at 20,000' AGL
Conditions
  • Blowing
  • Dust
From Jan-19 @ 01:00 - Jan-19 @ 06:00
Wind Visibility
310° at 24 knots
 Gusting to 34 knots
Greater than 6 miles
Clouds
  • Scattered at 20,000' AGL
From Jan-19 @ 06:00 - Jan-19 @ 12:00
Wind Visibility
340° at 20 knots
 Gusting to 28 knots
Greater than 6 miles
Clouds
  • Broken at 10,000' AGL
From Jan-19 @ 12:00 - Jan-19 @ 18:00
Wind Visibility
340° at 13 knots Greater than 6 miles
Clouds
  • Broken at 10,000' AGL